Ninepoints, Pennsylvania
Current Conditions -  °F | °C
As of 2:35 PM on Wednesday 17 Dec 2014 (Local Time) from KMQS Reporting Station
Overcast Overcast  
Wind Chill: 39°   Ceiling: 3800
Heat Index: 46°   Visibility: 10mi
Dew Point: 36°   Wind: 20mph
Humidity: 66%   Direction: 290°WNW
Pressure: 29.91"   Gusts: 26mph
Location:  39.9118°N, 76.0265°W
Report Text: KMQS 171935Z AUTO 29017G23KT 10SM OVC038 08/02 A2991 RMK AO2
Loading
Personal Weather Stations






























Interactive Weather Map New forecast layout! Learn more

10-Day Weather Forecast

Advertisements
Track Severe Weather on mobile